Main page
METAR-TAF:

METAR-TAF

Airports :

Santa Maria Airport

Santa Maria, Rio Grande do Sul, Brazil

latitude: 29-43S, longitude: 053-42W, elevation: 85 m

Current weather observation

The report was made 22 minutes ago, at 22:00 UTC
Wind 2 kt from the Northeast
Temperature 19°C
Humidity 94%
Pressure 1016 hPa
Visibility 10 km or more
no clouds below 1500 m and no cumulonimbus

METAR: SBSM 242200Z 05002KT CAVOK 19/18 Q1016

Time: 19:22 (22:22 UTC)

Forecast

The report was made 7 hours and 22 minutes ago, at 15:00 UTC
Forecast valid from 24 at 18 UTC to 25 at 06 UTC
Wind 5 kt from the Northeast
Visibility 10 km or more
Broken clouds at a height of 2000 ft
Becoming
from 25 at 00 UTC to 25 at 02 UTC
Wind 5 kt from the East/Southeast
Scattered clouds at a height of 2000 ft

TAF: SBSM 241500Z 2418/2506 04005KT 9999 BKN020 TX23/2418Z TN15/2505Z BECMG 2500/2502 12005KT SCT020 RMK PDV

Weather observations and forecasts of more than 4000 airports (METAR and TAF reports).

The available stations are represented by yellow and red dots on the map.

Hover mouse over dot to see the name of the station.

Then click to see weather observations and forecasts.

To change the map : click on the green buttons with a black cross to zoom in, on the green button with a dash to zoom out, or on the green arrows for adjacent maps.


METAR-TAF: